Airfield :
LOGIN :

Register | Disclaimer

   EN    FR    IT 

 










Legend :    VFR   Marginal VFR   IFR   Intensive IFR   Very Intensive IFR
Visi :
Ceiling :
>= 8 km
>= 3000ft
5 to 8 km
1000 to 3000 ft
1500m to 5 km
500 to 1000 ft
800 to 1500m
200 to 500 ft
< 800m
< 200 ft
Symbols :   Thunderstorms  Fog  Heavy snow  Heavy precipitations  Wind > 20 kt
SIGMETs :     Misc.  Thunderstorms  Icing  Turbulence  Mountain Waves  Volcanic Ashes






- Airport Elevation : 276 ft


LYVR - Vršac International

CURRENT METAR :
  • 210430Z AUTO 34006KT 7000 FEW016/// OVC028/// M00/M02 Q1045

EXPIRED METARs :
  • 210400Z AUTO 34006KT 8000 FEW007/// OVC027/// M00/M01 Q1045
  • 210330Z AUTO VRB02KT 5000 BR OVC022/// M00/M01 Q1045
  • 210300Z AUTO VRB03KT 4800 BR FEW005/// OVC020/// M00/M01 Q1045
  • 210230Z AUTO VRB03KT 4800 BR FEW006/// SCT016/// OVC019/// M00/M01 Q1046
  • 210200Z AUTO 34004KT 7000 OVC018/// 00/M01 Q1046

TAF TAF LYVR
Valid from the 21 at 00:00 until the 22 at 00:00 UTC


202300Z 2100/2124 03004KT 2500 BR BKN007 TX02/2113Z TNM03/2106Z
BECMG 2002/2004 0500 FZFG VV002
BECMG 2109/2111 6000 NSW SCT006 BKN015



MET'MAP, your aeronautical weather chart ! - Copyright ORBIFLY December 2007 - Disclaimer

ORBIFLY MET'MAP TEAM :

Programming & Development : Alexandra Zaïnal
Concept & original design : Baudouin d'Aumeries
Assistance for programming : Marc-Olivier Méhu
Technical & hardware support : Manuel Goepfert

Contact : metmap@orbifly.com




SOURCES & CREDITS :

   NOAA